Time;durP1;ratioP1;P1;durP2;ratioP2;P2;SDS_P1;SDS_P2;PMS_P1;PMS_P2;Temp;Humidity;BMP_temperature;BMP_pressure;BME280_temperature;BME280_humidity;BME280_pressure;Samples;Min_cycle;Max_cycle;Signal;HPM_P1;HPM_P2
2023/01/26 00:01:28;;;;;;;28.00;13.10;;;;;;;-144.47;88.13;53156.00;5006573;28;20030;-72
2023/01/26 00:03:54;;;;;;;30.42;13.27;;;;;;;-144.47;88.51;53158.00;5005132;28;20598;-71
2023/01/26 00:06:21;;;;;;;29.98;12.48;;;;;;;-144.47;88.16;53161.97;5007902;28;20037;-68
2023/01/26 00:08:52;;;;;;;24.20;12.00;;;;;;;-144.47;88.28;53130.19;5019043;28;20046;-69
2023/01/26 00:11:25;;;;;;;27.25;13.13;;;;;;;-144.47;88.01;53142.09;4999084;28;20110;-67
2023/01/26 00:13:52;;;;;;;32.28;13.02;;;;;;;-144.47;87.94;53173.88;5002853;28;20096;-71
2023/01/26 00:16:18;;;;;;;27.00;14.00;;;;;;;-144.47;87.89;53142.09;4995532;28;20034;-71
2023/01/26 00:18:44;;;;;;;23.85;12.07;;;;;;;-144.47;88.08;53169.91;4998189;28;20018;-71
2023/01/26 00:21:15;;;;;;;31.40;12.75;;;;;;;-144.47;88.54;53169.91;5001074;28;20045;-69
2023/01/26 00:23:41;;;;;;;35.53;14.90;;;;;;;-144.47;89.83;53173.88;4990760;28;20100;-70
2023/01/26 00:26:09;;;;;;;34.20;14.55;;;;;;;-144.47;90.23;53169.91;5008606;28;20030;-70
2023/01/26 00:28:35;;;;;;;31.95;13.73;;;;;;;-144.47;90.99;53156.00;4994786;28;20033;-71
2023/01/26 00:31:10;;;;;;;37.22;15.52;;;;;;;-144.47;91.48;53181.84;5008470;28;20030;-67
2023/01/26 00:33:35;;;;;;;40.58;14.40;;;;;;;-144.47;92.15;53165.94;4989661;28;20419;-69
2023/01/26 00:36:01;;;;;;;34.80;14.13;;;;;;;-144.47;92.13;53154.03;4998371;28;20026;-68
2023/01/26 00:38:26;;;;;;;44.22;15.80;;;;;;;-144.47;92.86;53171.91;4994679;28;20018;-69
2023/01/26 00:40:51;;;;;;;37.17;15.90;;;;;;;-144.47;93.36;53189.78;5008165;28;20029;-69
2023/01/26 00:43:17;;;;;;;40.85;16.67;;;;;;;-144.47;93.37;53177.88;4994108;28;20037;-71
2023/01/26 00:45:43;;;;;;;38.47;15.15;;;;;;;-144.47;93.74;53193.75;5000601;28;20034;-71
2023/01/26 00:48:08;;;;;;;40.50;15.70;;;;;;;-144.47;94.17;53167.94;4987802;28;20141;-72
2023/01/26 00:50:33;;;;;;;29.83;13.77;;;;;;;-144.47;94.04;53219.56;4996796;28;20617;-70
2023/01/26 00:52:59;;;;;;;40.47;15.35;;;;;;;-144.47;94.39;53169.91;5007204;28;20061;-70
2023/01/26 00:55:31;;;;;;;40.45;14.90;;;;;;;-144.47;94.90;53142.09;5000745;28;20428;-72
2023/01/26 00:58:00;;;;;;;39.20;15.30;;;;;;;-144.47;94.75;53177.88;4999704;28;20034;-71
2023/01/26 01:00:26;;;;;;;42.85;15.05;;;;;;;-144.47;95.27;53185.81;5003389;28;20023;-71
2023/01/26 01:02:51;;;;;;;34.83;15.45;;;;;;;-144.47;95.02;53142.09;5005535;28;20524;-66
2023/01/26 01:05:17;;;;;;;36.80;13.40;;;;;;;-144.47;95.29;53197.72;4995049;28;20045;-70
2023/01/26 01:07:42;;;;;;;39.85;13.65;;;;;;;-144.47;95.77;53181.84;5005284;28;20026;-68
2023/01/26 01:10:08;;;;;;;34.47;12.65;;;;;;;-144.47;96.08;53179.84;5001509;28;20437;-70
2023/01/26 01:12:34;;;;;;;49.25;15.00;;;;;;;-144.47;95.97;53195.75;5004251;28;20041;-67
2023/01/26 01:14:59;;;;;;;37.67;13.38;;;;;;;-144.47;95.70;53160.00;4992598;28;20050;-69
2023/01/26 01:17:25;;;;;;;37.75;14.50;;;;;;;-144.47;95.64;53179.84;5008738;28;20136;-70
2023/01/26 01:19:50;;;;;;;36.85;13.02;;;;;;;-144.47;96.09;53187.78;4998354;28;20037;-68
2023/01/26 01:22:16;;;;;;;33.95;13.70;;;;;;;-144.47;95.99;53181.84;5006484;28;20041;-70
2023/01/26 01:24:41;;;;;;;37.35;12.88;;;;;;;-144.47;96.62;53201.69;5011419;28;20464;-67
2023/01/26 01:27:06;;;;;;;31.55;13.95;;;;;;;-144.47;96.03;53201.69;5010155;28;20044;-69
2023/01/26 01:29:32;;;;;;;30.27;13.27;;;;;;;-144.47;96.03;53189.78;5006107;28;20108;-69
2023/01/26 01:31:57;;;;;;;49.60;15.45;;;;;;;-144.47;95.92;53185.81;4994529;28;20037;-69
2023/01/26 01:34:22;;;;;;;37.95;14.18;;;;;;;-144.47;95.35;53171.91;4984539;28;20030;-68
2023/01/26 01:36:48;;;;;;;40.22;12.77;;;;;;;-144.47;95.71;53183.81;5004666;28;20333;-69
2023/01/26 01:39:13;;;;;;;32.03;12.73;;;;;;;-144.47;95.52;53179.84;5001107;28;20030;-69
2023/01/26 01:41:39;;;;;;;40.78;14.85;;;;;;;-144.47;95.53;53183.81;4991168;28;20026;-68
2023/01/26 01:44:19;;;;;;;35.78;14.10;;;;;;;-144.47;95.84;53163.97;4999554;28;20029;-69
2023/01/26 01:46:50;;;;;;;39.63;14.40;;;;;;;-144.47;95.92;53177.88;5005036;28;20033;-69
2023/01/26 01:49:37;;;;;;;40.60;16.88;;;;;;;-144.47;95.84;53201.69;4989571;28;20104;-69
2023/01/26 01:52:05;;;;;;;45.08;15.82;;;;;;;-144.47;96.01;53183.81;4994102;28;20049;-70
2023/01/26 01:54:36;;;;;;;47.90;16.67;;;;;;;-144.47;96.40;53169.91;5006979;28;20125;-71
2023/01/26 01:57:14;;;;;;;36.20;13.38;;;;;;;-144.47;96.07;53181.84;5007148;28;20052;-70
2023/01/26 01:59:43;;;;;;;42.45;15.45;;;;;;;-144.47;95.62;53169.91;5010236;28;20026;-70
2023/01/26 02:02:10;;;;;;;43.70;14.80;;;;;;;-144.47;95.77;53169.91;4999893;28;20083;-70
2023/01/26 02:04:36;;;;;;;42.58;15.10;;;;;;;-144.47;95.57;53181.84;5001940;28;20025;-69
2023/01/26 02:07:02;;;;;;;43.25;15.60;;;;;;;-144.47;95.96;53181.84;5009098;28;20515;-68
2023/01/26 02:12:21;;;;;;;36.85;13.60;;;;;;;-144.47;94.92;53215.59;4996342;28;20048;-70
2023/01/26 02:14:50;;;;;;;46.63;15.95;;;;;;;-144.47;95.11;53187.78;4997911;28;20472;-71
2023/01/26 02:17:16;;;;;;;31.30;12.48;;;;;;;-144.47;94.88;53197.72;4996966;28;20381;-71
2023/01/26 02:20:03;;;;;;;39.28;12.93;;;;;;;-144.47;94.81;53209.66;4993853;28;20103;-69
2023/01/26 02:22:43;;;;;;;37.95;13.57;;;;;;;-144.47;94.88;53185.81;4994742;28;20026;-68
2023/01/26 02:25:29;;;;;;;28.73;12.00;;;;;;;-144.47;94.81;53193.75;5010268;28;20492;-70
2023/01/26 02:27:55;;;;;;;37.13;13.32;;;;;;;-144.47;95.67;53189.78;5008950;28;20030;-70
2023/01/26 02:30:21;;;;;;;29.45;12.13;;;;;;;-144.47;95.53;53191.78;5006882;28;20120;-68
2023/01/26 02:32:47;;;;;;;30.27;12.38;;;;;;;-144.47;95.35;53209.66;4989730;28;20122;-69
2023/01/26 02:35:12;;;;;;;34.15;13.15;;;;;;;-144.47;95.68;53203.69;4987755;28;20113;-69
2023/01/26 02:37:37;;;;;;;27.13;12.93;;;;;;;-144.47;95.42;53165.94;4994596;28;20113;-71
2023/01/26 02:40:23;;;;;;;31.55;12.18;;;;;;;-144.47;95.85;53177.88;4995303;28;20057;-70
2023/01/26 02:42:48;;;;;;;30.10;12.15;;;;;;;-144.47;95.62;53197.72;4992748;28;20575;-72
2023/01/26 02:45:15;;;;;;;28.13;12.00;;;;;;;-144.47;95.67;53163.97;4998205;28;20109;-73
2023/01/26 02:47:41;;;;;;;33.15;12.48;;;;;;;-144.47;96.28;53163.97;5006950;28;20018;-71
2023/01/26 02:50:08;;;;;;;29.65;11.05;;;;;;;-144.47;96.07;53189.78;4990795;28;20044;-70
2023/01/26 02:52:33;;;;;;;31.25;10.63;;;;;;;-144.47;96.19;53193.75;5003981;28;20124;-70
2023/01/26 02:57:43;;;;;;;30.08;11.77;;;;;;;-144.47;95.36;53156.00;4988609;28;20092;-70
2023/01/26 03:00:13;;;;;;;35.25;12.20;;;;;;;-144.47;95.32;53203.69;4990477;28;20026;-70
2023/01/26 03:02:40;;;;;;;32.90;12.25;;;;;;;-144.47;95.52;53199.72;5006244;28;20053;-68
2023/01/26 03:05:05;;;;;;;31.70;11.20;;;;;;;-144.47;96.18;53183.81;4999705;28;20045;-66
2023/01/26 03:07:31;;;;;;;28.20;10.55;;;;;;;-144.47;96.38;53156.00;4996329;28;20034;-69
2023/01/26 03:09:59;;;;;;;36.92;12.10;;;;;;;-144.47;96.75;53211.63;5009778;28;20026;-70
2023/01/26 03:12:25;;;;;;;38.93;12.73;;;;;;;-144.47;97.26;53183.81;4994976;28;20137;-69
2023/01/26 03:17:35;;;;;;;41.10;13.05;;;;;;;-144.47;97.14;53221.56;5004062;28;20033;-70
2023/01/26 03:28:12;;;;;;;22.60;10.43;;;;;;;-144.47;98.18;53173.88;4989065;28;20521;-72
2023/01/26 03:30:38;;;;;;;21.75;8.45;;;;;;;-144.47;98.51;53187.78;4988187;28;20086;-72
2023/01/26 03:33:06;;;;;;;25.58;9.05;;;;;;;-144.47;98.68;53179.84;4989822;28;20042;-74
2023/01/26 03:35:32;;;;;;;21.50;8.05;;;;;;;-144.47;99.03;53203.69;4984018;28;20179;-70
2023/01/26 03:37:57;;;;;;;21.60;8.20;;;;;;;-144.47;99.57;53171.91;5003234;28;20125;-70
2023/01/26 03:56:47;;;;;;;28.35;9.13;;;;;;;-144.47;100.00;53187.78;5009483;28;20515;-69
2023/01/26 03:59:15;;;;;;;38.55;10.25;;;;;;;-144.47;100.00;53197.72;4995644;28;20034;-67
2023/01/26 04:09:55;;;;;;;32.53;10.45;;;;;;;-144.47;100.00;53211.63;4995099;28;20065;-70
2023/01/26 04:12:20;;;;;;;30.63;9.95;;;;;;;-144.47;100.00;53225.53;5001092;28;20445;-69
2023/01/26 04:22:57;;;;;;;28.17;9.43;;;;;;;-144.47;100.00;53211.63;4996702;28;20037;-68
2023/01/26 04:25:22;;;;;;;30.38;8.75;;;;;;;-144.47;100.00;53209.66;4995210;28;20030;-69
2023/01/26 04:27:48;;;;;;;23.55;7.60;;;;;;;-144.47;100.00;53197.72;5001744;28;20037;-69
2023/01/26 04:30:14;;;;;;;18.63;7.57;;;;;;;-144.47;100.00;53211.63;4987306;28;20064;-67
2023/01/26 04:32:40;;;;;;;28.25;8.65;;;;;;;-144.47;100.00;53223.56;5000244;28;20101;-71
2023/01/26 04:35:07;;;;;;;23.65;8.65;;;;;;;-144.47;100.00;53199.72;5007019;28;20108;-71
2023/01/26 04:37:32;;;;;;;26.88;9.00;;;;;;;-144.47;100.00;53201.69;4995061;28;20468;-70
2023/01/26 04:39:58;;;;;;;27.77;10.32;;;;;;;-144.47;100.00;53201.69;4996122;28;20034;-70
2023/01/26 04:42:23;;;;;;;25.77;9.48;;;;;;;-144.47;100.00;53209.66;4986486;28;20026;-69
2023/01/26 04:44:50;;;;;;;24.73;9.35;;;;;;;-144.47;100.00;53231.50;4988696;28;20583;-71
2023/01/26 04:47:16;;;;;;;27.17;9.75;;;;;;;-144.47;100.00;53185.81;5004846;28;20108;-70
2023/01/26 04:49:41;;;;;;;24.70;9.50;;;;;;;-144.47;100.00;53181.84;5007764;28;20104;-72
2023/01/26 04:52:07;;;;;;;25.73;8.93;;;;;;;-144.47;100.00;53207.66;5007356;28;20605;-69
2023/01/26 04:54:32;;;;;;;26.08;8.55;;;;;;;-144.47;100.00;53237.44;5007351;28;20137;-71
2023/01/26 04:56:57;;;;;;;26.17;8.48;;;;;;;-144.47;100.00;53205.66;5004776;28;20102;-69
2023/01/26 04:59:23;;;;;;;23.67;9.32;;;;;;;-144.47;100.00;53217.59;4998413;28;20038;-68
2023/01/26 05:01:48;;;;;;;28.10;8.73;;;;;;;-144.47;100.00;53199.72;4994149;28;20054;-70
2023/01/26 05:04:14;;;;;;;28.40;10.23;;;;;;;-144.47;100.00;53205.66;4988646;28;20070;-69
2023/01/26 05:06:40;;;;;;;33.92;10.38;;;;;;;-144.47;100.00;53209.66;4990171;28;20484;-69
2023/01/26 05:09:06;;;;;;;24.27;9.45;;;;;;;-144.47;100.00;53233.47;5001444;28;20104;-68
2023/01/26 05:11:32;;;;;;;33.47;11.02;;;;;;;-144.47;100.00;53193.75;4997295;28;20452;-71
2023/01/26 05:13:57;;;;;;;24.42;9.02;;;;;;;-144.47;100.00;53209.66;4994291;28;20026;-69
2023/01/26 05:16:23;;;;;;;28.58;10.32;;;;;;;-144.47;100.00;53205.66;4995348;28;20022;-68
2023/01/26 05:18:48;;;;;;;28.13;9.07;;;;;;;-144.47;100.00;53215.59;4987412;28;20042;-70
2023/01/26 05:21:14;;;;;;;20.63;8.40;;;;;;;-144.47;100.00;53227.53;4986422;28;20410;-70
2023/01/26 05:23:39;;;;;;;29.35;9.55;;;;;;;-144.47;100.00;53201.69;4992028;28;20033;-69
2023/01/26 05:26:05;;;;;;;24.95;8.75;;;;;;;-144.47;100.00;53197.72;5005988;28;20057;-66
2023/01/26 05:28:32;;;;;;;19.88;8.77;;;;;;;-144.47;100.00;53181.84;5004532;28;20108;-69
2023/01/26 05:30:57;;;;;;;25.95;9.38;;;;;;;-144.47;100.00;53197.72;5001581;28;20096;-71
2023/01/26 05:33:23;;;;;;;26.70;9.55;;;;;;;-144.47;100.00;53207.66;4991503;28;20042;-65
2023/01/26 05:35:49;;;;;;;21.27;8.80;;;;;;;-144.47;100.00;53223.56;4985668;28;20037;-68
2023/01/26 05:38:15;;;;;;;27.77;10.43;;;;;;;-144.47;100.00;53197.72;4988393;28;20026;-70
2023/01/26 05:40:40;;;;;;;31.15;10.23;;;;;;;-144.47;100.00;53189.78;4989102;28;20034;-69
2023/01/26 05:43:07;;;;;;;27.90;9.35;;;;;;;-144.47;100.00;53193.75;4991481;28;20143;-69
2023/01/26 05:45:33;;;;;;;31.33;9.68;;;;;;;-144.47;100.00;53179.84;4994187;28;20036;-66
2023/01/26 05:47:58;;;;;;;24.67;10.23;;;;;;;-144.47;100.00;53203.69;5000425;28;20621;-71
2023/01/26 05:50:24;;;;;;;27.55;9.68;;;;;;;-144.47;99.69;53219.56;5002979;28;20072;-69
2023/01/26 05:52:49;;;;;;;25.77;9.18;;;;;;;-144.47;100.00;53203.69;4989536;28;20034;-68
2023/01/26 05:55:15;;;;;;;21.70;8.60;;;;;;;-144.47;99.84;53217.59;5000924;28;20512;-69
2023/01/26 05:57:40;;;;;;;26.77;10.07;;;;;;;-144.47;100.00;53185.81;4991635;28;20026;-66
2023/01/26 06:00:07;;;;;;;26.23;9.82;;;;;;;-144.47;100.00;53189.78;5022448;22;20050;-66
2023/01/26 06:02:32;;;;;;;22.48;9.07;;;;;;;-144.47;99.77;53201.69;5024376;28;20030;-65
2023/01/26 06:04:58;;;;;;;22.23;9.48;;;;;;;-144.47;99.49;53175.88;5012220;28;20040;-68
2023/01/26 06:07:25;;;;;;;27.10;8.95;;;;;;;-144.47;99.47;53213.63;5016156;28;20049;-63
2023/01/26 06:09:50;;;;;;;36.78;8.85;;;;;;;-144.47;99.05;53213.63;5016751;28;20029;-67
2023/01/26 06:12:18;;;;;;;24.80;9.88;;;;;;;-144.47;99.03;53181.84;5024792;28;20126;-66
2023/01/26 06:14:43;;;;;;;22.40;8.63;;;;;;;-144.47;99.19;53209.66;5022844;28;20033;-65
2023/01/26 06:17:09;;;;;;;22.75;9.23;;;;;;;-144.47;99.16;53167.94;5016841;28;20030;-66
2023/01/26 06:19:36;;;;;;;25.77;9.88;;;;;;;-144.47;99.08;53185.81;5015629;28;20049;-67
2023/01/26 06:22:02;;;;;;;20.10;9.57;;;;;;;-144.47;99.36;53199.72;5028410;28;20025;-66
2023/01/26 06:24:27;;;;;;;26.88;10.13;;;;;;;-144.47;99.42;53171.91;5027403;28;20041;-67
2023/01/26 06:26:53;;;;;;;23.98;8.45;;;;;;;-144.47;99.51;53221.56;5023654;28;20038;-63
2023/01/26 06:29:18;;;;;;;19.55;8.05;;;;;;;-144.47;100.00;53199.72;5008630;28;20056;-67
2023/01/26 06:31:43;;;;;;;21.48;8.27;;;;;;;-144.47;99.87;53205.66;5012550;28;20105;-67
2023/01/26 06:34:09;;;;;;;21.02;8.57;;;;;;;-144.47;98.95;53223.56;5011265;28;20399;-67
2023/01/26 06:36:35;;;;;;;25.90;8.80;;;;;;;-144.47;99.59;53205.66;5011874;28;20029;-67
2023/01/26 06:39:00;;;;;;;25.20;8.40;;;;;;;-144.47;99.31;53225.53;5021693;28;20022;-63
2023/01/26 06:41:26;;;;;;;21.13;8.40;;;;;;;-144.47;99.10;53207.66;5010766;28;20034;-66
2023/01/26 06:43:51;;;;;;;21.95;8.05;;;;;;;-144.47;98.46;53193.75;5011396;28;20057;-65
2023/01/26 06:46:18;;;;;;;24.25;8.55;;;;;;;-144.47;98.41;53201.69;5013382;28;20037;-66
2023/01/26 06:48:43;;;;;;;21.92;9.35;;;;;;;-144.47;99.15;53177.88;5031686;28;20494;-66
2023/01/26 06:51:14;;;;;;;21.17;8.40;;;;;;;-144.47;99.31;53195.75;5028893;28;20036;-67
2023/01/26 06:53:42;;;;;;;24.58;8.05;;;;;;;-144.47;99.54;53183.81;5011761;28;20026;-66
2023/01/26 06:56:07;;;;;;;22.60;9.13;;;;;;;-144.47;99.28;53181.84;5029211;28;20099;-67
2023/01/26 06:58:33;;;;;;;27.90;9.75;;;;;;;-144.47;100.00;53191.78;5021237;28;20459;-63
2023/01/26 07:00:59;;;;;;;19.88;8.27;;;;;;;-144.47;99.64;53191.78;5013436;28;20040;-66
2023/01/26 07:03:25;;;;;;;21.75;7.85;;;;;;;-144.47;98.55;53209.66;5030060;28;20108;-68
2023/01/26 07:05:50;;;;;;;24.60;8.70;;;;;;;-144.47;98.21;53205.66;5017877;28;20113;-67
2023/01/26 07:08:15;;;;;;;15.70;6.97;;;;;;;-144.47;98.39;53213.63;5022002;28;20526;-67
2023/01/26 07:10:41;;;;;;;29.25;7.90;;;;;;;-144.47;98.23;53215.59;5026846;28;20033;-64
2023/01/26 07:13:06;;;;;;;16.13;6.72;;;;;;;-144.47;97.46;53193.75;5030790;28;20232;-67
2023/01/26 07:15:32;;;;;;;23.52;8.00;;;;;;;-144.47;97.92;53213.63;5013290;28;20030;-66
2023/01/26 07:17:58;;;;;;;22.85;8.45;;;;;;;-144.47;97.92;53207.66;5014265;28;20093;-66
2023/01/26 07:20:23;;;;;;;23.17;8.43;;;;;;;-144.47;97.96;53195.75;5019244;28;20017;-65
2023/01/26 07:22:50;;;;;;;20.00;8.38;;;;;;;-144.47;98.28;53183.81;5024424;28;20032;-67
2023/01/26 07:25:16;;;;;;;15.50;6.90;;;;;;;-144.47;97.24;53201.69;5018781;28;20026;-67
2023/01/26 07:27:41;;;;;;;15.15;7.18;;;;;;;-144.47;95.90;53191.78;5015195;28;20033;-68
2023/01/26 07:30:08;;;;;;;19.88;9.00;;;;;;;-144.47;96.41;53209.66;5017190;28;20077;-68
2023/01/26 07:32:33;;;;;;;11.48;5.13;;;;;;;-144.47;95.78;53221.56;5017721;28;20022;-66
2023/01/26 07:34:59;;;;;;;16.58;7.95;;;;;;;-144.47;94.93;53197.72;5007221;28;20032;-67
2023/01/26 07:37:28;;;;;;;16.80;8.00;;;;;;;-144.47;95.76;53189.78;5013187;28;20108;-66
2023/01/26 07:39:54;;;;;;;17.17;6.75;;;;;;;-144.47;95.38;53205.66;5015799;28;20044;-68
2023/01/26 07:42:19;;;;;;;16.45;7.70;;;;;;;-144.47;95.51;53154.03;5016137;28;20033;-67
2023/01/26 07:44:45;;;;;;;17.58;7.63;;;;;;;-144.47;94.65;53193.75;5030126;28;20049;-66
2023/01/26 07:47:10;;;;;;;14.05;6.28;;;;;;;-144.47;94.50;53189.78;5019720;28;20101;-62
2023/01/26 07:49:36;;;;;;;24.90;7.28;;;;;;;-144.47;93.67;53167.94;5009624;28;20504;-67
2023/01/26 07:52:01;;;;;;;16.13;6.85;;;;;;;-144.47;93.12;53199.72;5014369;28;20098;-64
2023/01/26 07:54:27;;;;;;;15.40;6.13;;;;;;;-144.47;93.37;53187.78;5017030;28;20060;-65
2023/01/26 07:56:53;;;;;;;21.33;7.25;;;;;;;-144.47;92.86;53171.91;5016411;28;20043;-66
2023/01/26 07:59:19;;;;;;;13.50;5.70;;;;;;;-144.47;91.61;53179.84;5029388;28;20017;-67
2023/01/26 08:01:45;;;;;;;16.60;5.80;;;;;;;-144.47;91.91;53199.72;5017949;28;20033;-67
2023/01/26 08:04:11;;;;;;;16.50;7.43;;;;;;;-144.47;91.52;53173.88;5009583;28;20029;-64
2023/01/26 08:06:36;;;;;;;14.13;6.10;;;;;;;-144.47;91.37;53199.72;5009693;28;20045;-65
2023/01/26 08:09:02;;;;;;;19.60;6.63;;;;;;;-144.47;91.34;53181.84;5010794;28;20034;-64
2023/01/26 08:11:27;;;;;;;18.13;6.70;;;;;;;-144.47;92.05;53205.66;5018052;28;20507;-67
2023/01/26 08:13:53;;;;;;;18.55;7.00;;;;;;;-144.47;92.64;53191.78;5011857;28;20056;-66
2023/01/26 08:16:19;;;;;;;16.90;7.32;;;;;;;-144.47;92.78;53215.59;5013663;28;20025;-66
2023/01/26 08:18:45;;;;;;;16.00;6.53;;;;;;;-144.47;93.13;53181.84;5015125;28;20022;-65
2023/01/26 08:21:13;;;;;;;15.80;7.13;;;;;;;-144.47;92.44;53161.97;5014127;28;20546;-66
2023/01/26 08:23:38;;;;;;;15.52;6.43;;;;;;;-144.47;93.46;53185.81;5010237;28;20033;-67
2023/01/26 08:26:06;;;;;;;17.98;6.72;;;;;;;-144.47;94.32;53179.84;5019912;28;20037;-66
2023/01/26 08:28:32;;;;;;;15.70;7.40;;;;;;;-144.47;94.57;53197.72;5011556;28;20112;-63
2023/01/26 08:31:06;;;;;;;22.92;8.07;;;;;;;-144.47;95.06;53199.72;5011645;28;20105;-66
2023/01/26 08:33:31;;;;;;;18.75;7.68;;;;;;;-144.47;94.71;53156.00;5004567;28;20141;-63
2023/01/26 08:36:01;;;;;;;15.80;6.85;;;;;;;-144.47;95.25;53185.81;5014853;28;20062;-66
2023/01/26 08:38:29;;;;;;;24.13;9.02;;;;;;;-144.47;95.22;53209.66;5010141;28;20026;-66
2023/01/26 08:40:54;;;;;;;26.58;9.18;;;;;;;-144.47;95.40;53173.88;5028345;28;20100;-65
2023/01/26 08:43:20;;;;;;;20.20;8.93;;;;;;;-144.47;95.77;53185.81;5029289;28;20109;-68
2023/01/26 08:45:46;;;;;;;20.65;9.25;;;;;;;-144.47;95.78;53185.81;5022727;28;20144;-66
2023/01/26 08:48:11;;;;;;;19.80;8.40;;;;;;;-144.47;95.82;53175.88;5028255;28;20116;-66
2023/01/26 08:50:37;;;;;;;23.20;9.48;;;;;;;-144.47;95.82;53197.72;5019519;28;20524;-66
2023/01/26 08:53:02;;;;;;;20.67;7.85;;;;;;;-144.47;95.84;53199.72;5007453;28;20022;-68
2023/01/26 08:55:28;;;;;;;23.42;9.30;;;;;;;-144.47;96.99;53219.56;5014895;28;20044;-65
2023/01/26 08:57:54;;;;;;;30.35;9.38;;;;;;;-144.47;96.52;53195.75;5010168;28;20119;-64
2023/01/26 09:00:21;;;;;;;18.08;9.43;;;;;;;-144.47;97.30;53205.66;5007944;28;20511;-66
2023/01/26 09:02:48;;;;;;;26.98;10.52;;;;;;;-144.47;96.65;53179.84;5004940;28;20030;-66
2023/01/26 09:05:13;;;;;;;18.60;8.73;;;;;;;-144.47;97.36;53209.66;5015763;28;20076;-63
2023/01/26 09:07:39;;;;;;;27.02;9.20;;;;;;;-144.47;97.61;53183.81;5002730;28;20045;-64
2023/01/26 09:10:05;;;;;;;22.98;9.70;;;;;;;-144.47;97.75;53203.69;5004367;28;20038;-67
2023/01/26 09:12:30;;;;;;;24.63;8.98;;;;;;;-144.47;98.52;53217.59;5011550;28;20029;-65
2023/01/26 09:14:56;;;;;;;17.20;7.78;;;;;;;-144.47;98.23;53205.66;5012992;28;20026;-66
2023/01/26 09:17:21;;;;;;;17.33;8.18;;;;;;;-144.47;98.03;53205.66;5013568;28;20033;-66
2023/01/26 09:19:46;;;;;;;16.33;8.52;;;;;;;-144.47;98.32;53205.66;5005731;28;20022;-66
2023/01/26 09:22:12;;;;;;;20.98;8.02;;;;;;;-144.47;98.06;53201.69;5010658;28;20564;-66
2023/01/26 09:24:37;;;;;;;25.77;8.40;;;;;;;-144.47;97.42;53160.00;5009339;28;20396;-66
2023/01/26 09:27:02;;;;;;;25.98;11.05;;;;;;;-144.47;97.45;53193.75;5020426;28;20048;-63
2023/01/26 09:29:28;;;;;;;20.25;9.60;;;;;;;-144.47;97.29;53187.78;5030077;28;20396;-67
2023/01/26 09:31:53;;;;;;;17.88;7.75;;;;;;;-144.47;96.19;53183.81;5024275;28;20083;-64
2023/01/26 09:34:18;;;;;;;21.10;8.88;;;;;;;-144.47;95.31;53183.81;5009869;28;20064;-67
2023/01/26 09:36:44;;;;;;;23.17;9.63;;;;;;;-144.47;95.99;53197.72;5016925;28;20049;-65
2023/01/26 09:39:09;;;;;;;19.50;8.98;;;;;;;-144.47;96.75;53173.88;5032053;28;20487;-63
2023/01/26 09:41:43;;;;;;;19.13;8.15;;;;;;;-144.47;96.57;53205.66;5023943;28;20600;-68
2023/01/26 09:44:17;;;;;;;16.20;7.25;;;;;;;-144.47;97.39;53213.63;5019400;28;20026;-65
2023/01/26 09:47:06;;;;;;;19.35;6.97;;;;;;;-144.47;96.55;53191.78;5012088;28;20030;-67
2023/01/26 09:50:04;;;;;;;;;;;;;;;-144.47;96.65;53189.78;5012930;28;20040;-66
2023/01/26 09:52:54;;;;;;;25.17;7.13;;;;;;;-144.47;97.19;53217.59;4978910;28;19917;-64
2023/01/26 09:55:21;;;;;;;23.13;6.50;;;;;;;-144.47;97.04;53211.63;5011289;28;20096;-69
2023/01/26 09:57:54;;;;;;;20.15;8.13;;;;;;;-144.47;96.69;53221.56;5017781;28;20463;-69
2023/01/26 10:00:26;;;;;;;19.98;7.65;;;;;;;-144.47;96.89;53163.97;5025057;28;20045;-67
2023/01/26 10:02:54;;;;;;;23.67;8.02;;;;;;;-144.47;97.25;53219.56;5011076;28;20061;-67
2023/01/26 10:05:41;;;;;;;24.42;9.75;;;;;;;-144.47;97.82;53231.50;5011538;28;20040;-66
2023/01/26 10:08:12;;;;;;;18.08;7.88;;;;;;;-144.47;96.48;53177.88;5013512;28;20072;-64
2023/01/26 10:10:43;;;;;;;21.65;8.20;;;;;;;-144.47;95.82;53181.84;5022909;28;20026;-62
2023/01/26 10:13:13;;;;;;;20.40;7.13;;;;;;;-144.47;95.84;53185.81;5025355;28;20026;-65
2023/01/26 10:15:42;;;;;;;21.17;8.40;;;;;;;-144.47;95.16;53193.75;5011918;28;20528;-64
2023/01/26 10:18:48;;;;;;;19.67;7.22;;;;;;;-144.47;94.48;53191.78;5029291;28;20048;-64
2023/01/26 10:21:17;;;;;;;23.85;8.35;;;;;;;-144.47;95.28;53197.72;5014487;28;20057;-67
2023/01/26 10:23:47;;;;;;;21.55;8.23;;;;;;;-144.47;95.09;53245.41;5009472;28;20045;-67
2023/01/26 10:26:15;;;;;;;18.33;8.05;;;;;;;-144.47;94.29;53211.63;5025790;28;20112;-64
2023/01/26 10:28:46;;;;;;;21.70;7.75;;;;;;;-144.47;93.04;53197.72;5031417;28;20026;-66
2023/01/26 10:31:17;;;;;;;17.98;7.50;;;;;;;-144.47;92.41;53209.66;5012702;28;20049;-66
2023/01/26 10:33:50;;;;;;;13.25;5.90;;;;;;;-144.47;92.91;53207.66;5010079;28;20492;-66
2023/01/26 10:36:16;;;;;;;21.88;9.30;;;;;;;-144.47;93.01;53205.66;5010301;28;20029;-66
2023/01/26 10:38:43;;;;;;;18.40;6.43;;;;;;;-144.47;92.18;53217.59;5024134;28;20227;-63
2023/01/26 10:41:17;;;;;;;17.65;6.57;;;;;;;-144.47;92.13;53181.84;5026502;28;20495;-64
2023/01/26 10:44:02;;;;;;;21.05;6.90;;;;;;;-144.47;92.26;53193.75;5010507;28;20037;-64
2023/01/26 10:46:36;;;;;;;16.17;6.88;;;;;;;-144.47;91.64;53207.66;5020285;28;20025;-68
2023/01/26 10:49:08;;;;;;;13.60;5.70;;;;;;;-144.47;90.62;53165.94;5010120;28;20033;-66
2023/01/26 10:51:35;;;;;;;13.80;5.68;;;;;;;-144.47;89.64;53185.81;5015856;28;20546;-63
2023/01/26 10:54:26;;;;;;;14.60;5.20;;;;;;;-144.47;89.58;53211.63;5011875;28;20092;-66
2023/01/26 10:56:56;;;;;;;12.68;5.18;;;;;;;-144.47;88.78;53148.06;5016620;28;20031;-64
2023/01/26 10:59:49;;;;;;;16.45;6.13;;;;;;;-144.47;89.18;53203.69;5015582;28;20104;-65
2023/01/26 11:02:14;;;;;;;13.32;5.18;;;;;;;-144.47;89.32;53215.59;5006773;28;20117;-66
2023/01/26 11:04:40;;;;;;;12.18;4.95;;;;;;;-144.47;88.85;53193.75;5009314;28;20026;-66
2023/01/26 11:07:26;;;;;;;13.52;5.43;;;;;;;-144.47;89.17;53207.66;5020087;28;20033;-66
2023/01/26 11:09:53;;;;;;;11.73;4.90;;;;;;;-144.47;88.44;53199.72;5003526;28;20034;-67
2023/01/26 11:12:21;;;;;;;19.35;6.65;;;;;;;-144.47;88.79;53187.78;5007936;28;20030;-64
2023/01/26 11:15:00;;;;;;;10.70;5.35;;;;;;;-144.47;89.08;53169.91;5003630;28;20041;-64
2023/01/26 11:17:32;;;;;;;14.35;6.22;;;;;;;-144.47;90.10;53175.88;5004812;28;20619;-66
2023/01/26 11:20:32;;;;;;;13.70;5.38;;;;;;;-144.47;90.07;53173.88;5004586;28;20064;-66
2023/01/26 11:23:13;;;;;;;25.15;7.13;;;;;;;-144.47;90.65;53163.97;5005401;28;20017;-68
2023/01/26 11:25:46;;;;;;;13.10;5.95;;;;;;;-144.47;90.72;53163.97;5003471;28;20828;-67
2023/01/26 11:28:23;;;;;;;13.48;6.05;;;;;;;-144.47;91.78;53183.81;5005898;28;20033;-67
2023/01/26 11:31:08;;;;;;;18.10;6.65;;;;;;;-144.47;92.63;53211.63;5002043;28;20073;-63
2023/01/26 11:33:53;;;;;;;22.70;7.68;;;;;;;-144.47;92.46;53191.78;5002705;28;20033;-64
2023/01/26 11:36:36;;;;;;;18.20;7.82;;;;;;;-144.47;92.29;53219.56;5004840;28;20095;-65
2023/01/26 11:39:13;;;;;;;15.38;5.95;;;;;;;-144.47;92.69;53154.03;5002479;28;20075;-65
2023/01/26 11:42:01;;;;;;;15.65;7.07;;;;;;;-144.47;92.67;53205.66;5004185;28;20053;-66
2023/01/26 11:44:45;;;;;;;20.02;7.45;;;;;;;-144.47;92.39;53185.81;5003864;28;20033;-66
2023/01/26 11:47:22;;;;;;;20.75;8.10;;;;;;;-144.47;93.03;53205.66;4995639;28;20037;-64
2023/01/26 11:50:04;;;;;;;20.98;8.50;;;;;;;-144.47;94.34;53191.78;4999432;28;20502;-66
2023/01/26 11:52:53;;;;;;;21.27;9.73;;;;;;;-144.47;94.40;53221.56;5001947;28;20022;-67
2023/01/26 11:55:27;;;;;;;;;;;;;;;-144.47;94.43;53197.72;5002972;28;20029;-65
2023/01/26 11:57:59;;;;;;;27.67;9.40;;;;;;;-144.47;95.78;53156.00;5001901;28;20682;-67
2023/01/26 12:00:50;;;;;;;20.95;9.55;;;;;;;-144.47;96.05;53197.72;5029707;22;20120;-70
2023/01/26 12:03:38;;;;;;;27.35;10.68;;;;;;;-144.47;96.56;53197.72;5021656;28;20063;-68